createdAt,value
2018-05-08T00:00:09.899Z,5.12
2018-05-08T00:00:41.543Z,5.60
2018-05-08T00:01:13.179Z,5.18
2018-05-08T00:01:44.819Z,5.60
2018-05-08T00:02:16.441Z,5.70
2018-05-08T00:02:48.063Z,5.15
2018-05-08T00:03:19.688Z,5.35
2018-05-08T00:03:51.321Z,5.53
2018-05-08T00:04:22.978Z,5.60
2018-05-08T00:04:54.607Z,5.35
2018-05-08T00:05:26.235Z,5.47
2018-05-08T00:05:57.853Z,5.62
2018-05-08T00:06:29.469Z,5.80
2018-05-08T00:07:01.146Z,5.22
2018-05-08T00:07:32.780Z,5.37
2018-05-08T00:08:04.438Z,5.22
2018-05-08T00:08:36.079Z,5.87
2018-05-08T00:09:08.625Z,6.37
2018-05-08T00:09:40.253Z,5.82
2018-05-08T00:10:11.901Z,5.72
2018-05-08T00:10:43.551Z,5.47
2018-05-08T00:11:15.199Z,5.70
2018-05-08T00:11:46.858Z,5.62
2018-05-08T00:12:18.487Z,6.03
2018-05-08T00:12:50.121Z,5.30
2018-05-08T00:13:21.736Z,5.82
2018-05-08T00:13:53.363Z,5.43
2018-05-08T00:14:24.968Z,5.32
2018-05-08T00:14:56.618Z,6.00
2018-05-08T00:15:28.231Z,5.75
2018-05-08T00:15:59.851Z,5.50
2018-05-08T00:16:31.467Z,5.82
2018-05-08T00:17:03.097Z,5.22
2018-05-08T00:17:34.735Z,5.25
2018-05-08T00:18:06.365Z,5.57
2018-05-08T00:18:37.972Z,5.85
2018-05-08T00:19:09.635Z,5.72
2018-05-08T00:19:41.272Z,5.78
2018-05-08T00:20:12.893Z,5.65
2018-05-08T00:20:44.552Z,5.82
2018-05-08T00:21:16.181Z,5.82
2018-05-08T00:21:47.825Z,5.87
2018-05-08T00:22:19.451Z,5.78
2018-05-08T00:22:51.086Z,5.62
2018-05-08T00:23:22.715Z,5.47
2018-05-08T00:23:54.433Z,6.07
2018-05-08T00:24:26.064Z,5.57
2018-05-08T00:24:57.681Z,6.00
2018-05-08T00:25:29.309Z,5.40
2018-05-08T00:26:00.968Z,5.57
2018-05-08T00:26:32.595Z,4.97
2018-05-08T00:27:04.251Z,5.65
2018-05-08T00:27:35.890Z,5.53
2018-05-08T00:28:07.497Z,5.72
2018-05-08T00:28:39.126Z,5.80
2018-05-08T00:29:10.780Z,5.50
2018-05-08T00:29:42.436Z,5.75
2018-05-08T00:30:14.087Z,5.25
2018-05-08T00:30:45.722Z,5.68
2018-05-08T00:31:17.345Z,5.80
2018-05-08T00:31:48.998Z,5.37
2018-05-08T00:32:20.629Z,5.22
2018-05-08T00:32:52.257Z,5.15
2018-05-08T00:33:23.887Z,5.30
2018-05-08T00:33:55.505Z,5.18
2018-05-08T00:34:27.139Z,5.43
2018-05-08T00:34:58.773Z,5.75
2018-05-08T00:35:30.417Z,5.80
2018-05-08T00:36:02.061Z,5.45
2018-05-08T00:36:33.673Z,5.35
2018-05-08T00:37:05.312Z,5.10
2018-05-08T00:37:36.936Z,5.00
2018-05-08T00:38:08.544Z,5.87
2018-05-08T00:38:40.163Z,5.87
2018-05-08T00:39:11.788Z,5.00
2018-05-08T00:39:43.439Z,5.28
2018-05-08T00:40:15.060Z,5.53
2018-05-08T00:40:46.695Z,5.10
2018-05-08T00:41:18.317Z,5.62
2018-05-08T00:41:49.974Z,5.75
2018-05-08T00:42:21.584Z,5.70
2018-05-08T00:42:53.206Z,5.45
2018-05-08T00:43:24.826Z,5.53
2018-05-08T00:43:56.436Z,5.25
2018-05-08T00:44:28.077Z,6.15
2018-05-08T00:44:59.692Z,5.78
2018-05-08T00:45:31.332Z,5.57
2018-05-08T00:46:02.962Z,5.45
2018-05-08T00:46:34.610Z,5.82
2018-05-08T00:47:06.249Z,5.40
2018-05-08T00:47:37.864Z,5.80
2018-05-08T00:48:09.484Z,5.78
2018-05-08T00:48:41.113Z,5.87
2018-05-08T00:49:12.717Z,5.10
2018-05-08T00:49:44.323Z,5.80
2018-05-08T00:50:15.969Z,5.30
2018-05-08T00:50:47.615Z,5.90
2018-05-08T00:51:19.253Z,5.05
2018-05-08T00:51:50.883Z,5.70
2018-05-08T00:52:22.539Z,5.20
2018-05-08T00:52:54.168Z,5.45
2018-05-08T00:53:25.785Z,5.53
2018-05-08T00:53:57.425Z,5.50
2018-05-08T00:54:47.438Z,4.82
2018-05-08T00:55:19.046Z,5.68
2018-05-08T00:55:50.712Z,5.50
2018-05-08T00:56:22.354Z,5.10
2018-05-08T00:56:54.002Z,5.47
2018-05-08T00:57:25.655Z,5.37
2018-05-08T00:57:57.323Z,5.05
2018-05-08T00:58:28.975Z,5.10
2018-05-08T00:59:00.615Z,5.35
2018-05-08T00:59:32.235Z,5.45
2018-05-08T01:00:03.895Z,5.53
2018-05-08T01:00:35.570Z,5.30
2018-05-08T01:01:07.225Z,4.97
2018-05-08T01:01:38.841Z,5.55
2018-05-08T01:02:10.478Z,5.47
2018-05-08T01:02:42.135Z,5.90
2018-05-08T01:03:13.792Z,5.72
2018-05-08T01:03:45.431Z,5.07
2018-05-08T01:04:17.054Z,5.10
2018-05-08T01:04:48.777Z,5.40
2018-05-08T01:05:20.383Z,5.22
2018-05-08T01:05:52.067Z,5.43
2018-05-08T01:06:23.698Z,5.40
2018-05-08T01:06:55.316Z,6.03
2018-05-08T01:07:26.941Z,5.30
2018-05-08T01:07:58.586Z,5.40
2018-05-08T01:08:30.217Z,5.60
2018-05-08T01:09:01.855Z,5.50
2018-05-08T01:09:33.510Z,5.93
2018-05-08T01:10:05.151Z,5.78
2018-05-08T01:10:36.789Z,5.22
2018-05-08T01:11:08.420Z,5.85
2018-05-08T01:11:40.111Z,5.93
2018-05-08T01:12:11.718Z,5.28
2018-05-08T01:12:43.345Z,5.75
2018-05-08T01:13:14.988Z,5.87
2018-05-08T01:13:46.616Z,5.90
2018-05-08T01:14:18.263Z,5.93
2018-05-08T01:14:49.943Z,5.53
2018-05-08T01:15:21.596Z,5.68
2018-05-08T01:15:53.246Z,5.60
2018-05-08T01:16:37.935Z,5.40
2018-05-08T01:17:09.571Z,5.93
2018-05-08T01:17:41.207Z,5.90
2018-05-08T01:18:12.869Z,5.32
2018-05-08T01:18:44.511Z,5.03
2018-05-08T01:19:16.192Z,5.30
2018-05-08T01:19:47.874Z,5.78
2018-05-08T01:20:19.524Z,5.78
2018-05-08T01:20:51.148Z,5.75
2018-05-08T01:21:22.756Z,5.85
2018-05-08T01:21:54.373Z,6.07
2018-05-08T01:22:26.004Z,5.43
2018-05-08T01:22:57.638Z,5.32
2018-05-08T01:23:29.256Z,5.57
2018-05-08T01:24:00.875Z,4.85
2018-05-08T01:24:32.499Z,5.45
2018-05-08T01:25:04.130Z,5.18
2018-05-08T01:25:35.741Z,5.50
2018-05-08T01:26:07.375Z,5.53
2018-05-08T01:26:39.015Z,5.18
2018-05-08T01:27:10.652Z,5.80
2018-05-08T01:27:42.296Z,5.97
2018-05-08T01:28:13.915Z,5.20
2018-05-08T01:28:45.557Z,5.68
2018-05-08T01:29:17.182Z,5.47
2018-05-08T01:29:48.806Z,6.03
2018-05-08T01:30:20.426Z,5.32
2018-05-08T01:30:52.069Z,5.37
2018-05-08T01:31:23.715Z,5.62
2018-05-08T01:31:55.369Z,6.12
2018-05-08T01:32:27.004Z,5.30
2018-05-08T01:32:58.725Z,5.45
2018-05-08T01:33:30.377Z,5.93
2018-05-08T01:34:01.997Z,5.65
2018-05-08T01:34:33.613Z,5.43
2018-05-08T01:35:05.255Z,5.68
2018-05-08T01:35:36.873Z,5.60
2018-05-08T01:36:08.496Z,5.95
2018-05-08T01:36:40.139Z,5.85
2018-05-08T01:37:11.775Z,5.80
2018-05-08T01:37:43.424Z,5.50
2018-05-08T01:38:15.059Z,5.57
2018-05-08T01:38:46.695Z,5.60
2018-05-08T01:39:18.339Z,5.47
2018-05-08T01:39:49.971Z,6.25
2018-05-08T01:40:21.611Z,5.72
2018-05-08T01:40:53.363Z,5.57
2018-05-08T01:41:25.009Z,5.55
2018-05-08T01:41:56.663Z,5.07
2018-05-08T01:42:28.306Z,5.57
2018-05-08T01:42:59.931Z,6.15
2018-05-08T01:43:31.543Z,5.80
2018-05-08T01:44:03.209Z,6.28
2018-05-08T01:44:34.858Z,5.72
2018-05-08T01:45:06.519Z,5.85
2018-05-08T01:45:38.143Z,6.03
2018-05-08T01:46:09.755Z,5.78
2018-05-08T01:46:41.415Z,5.80
2018-05-08T01:47:13.046Z,6.05
2018-05-08T01:47:44.682Z,5.78
2018-05-08T01:48:16.311Z,6.03
2018-05-08T01:48:47.951Z,5.68
2018-05-08T01:49:19.626Z,6.57
2018-05-08T01:49:51.258Z,5.87
2018-05-08T01:50:22.893Z,5.57
2018-05-08T01:50:54.555Z,5.12
2018-05-08T01:51:26.175Z,5.35
2018-05-08T01:51:57.804Z,5.62
2018-05-08T01:52:29.419Z,5.62
2018-05-08T01:53:01.059Z,5.45
2018-05-08T01:53:32.695Z,5.95
2018-05-08T01:54:04.369Z,6.03
2018-05-08T01:54:36.028Z,5.68
2018-05-08T01:55:07.685Z,5.53
2018-05-08T01:55:39.350Z,6.20
2018-05-08T01:56:10.975Z,5.78
2018-05-08T01:56:42.628Z,5.70
2018-05-08T01:57:14.253Z,5.80
2018-05-08T01:57:45.869Z,6.00
2018-05-08T01:58:17.513Z,5.93
2018-05-08T01:58:49.136Z,5.65
2018-05-08T01:59:20.759Z,6.43
2018-05-08T01:59:52.401Z,5.95
2018-05-08T02:00:24.004Z,5.90
2018-05-08T02:00:55.596Z,6.30
2018-05-08T02:01:27.255Z,6.20
2018-05-08T02:01:58.892Z,6.12
2018-05-08T02:02:30.498Z,5.55
2018-05-08T02:03:02.111Z,6.05
2018-05-08T02:03:33.723Z,5.93
2018-05-08T02:04:05.332Z,5.95
2018-05-08T02:04:36.949Z,6.28
2018-05-08T02:05:08.586Z,6.62
2018-05-08T02:05:40.238Z,6.18
2018-05-08T02:06:11.877Z,6.15
2018-05-08T02:06:43.582Z,6.10
2018-05-08T02:07:15.235Z,5.97
2018-05-08T02:07:46.899Z,6.15
2018-05-08T02:08:18.545Z,6.15
2018-05-08T02:08:50.180Z,6.03
2018-05-08T02:09:21.942Z,6.18
2018-05-08T02:09:53.587Z,6.03
2018-05-08T02:10:25.221Z,6.47
2018-05-08T02:10:56.859Z,6.25
2018-05-08T02:11:28.501Z,5.93
2018-05-08T02:12:00.162Z,6.03
2018-05-08T02:12:31.789Z,6.45
2018-05-08T02:13:03.475Z,6.55
2018-05-08T02:13:35.108Z,6.25
2018-05-08T02:14:06.746Z,6.70
2018-05-08T02:14:38.378Z,6.95
2018-05-08T02:15:10.016Z,6.10
2018-05-08T02:15:41.650Z,6.40
2018-05-08T02:16:13.280Z,6.43
2018-05-08T02:16:44.904Z,5.97
2018-05-08T02:17:16.524Z,6.55
2018-05-08T02:17:48.142Z,6.50
2018-05-08T02:18:19.808Z,5.55
2018-05-08T02:18:51.425Z,6.53
2018-05-08T02:19:23.064Z,6.50
2018-05-08T02:19:54.692Z,6.07
2018-05-08T02:20:26.326Z,6.37
2018-05-08T02:20:57.966Z,6.18
2018-05-08T02:21:29.595Z,6.07
2018-05-08T02:22:01.221Z,6.87
2018-05-08T02:22:32.883Z,5.80
2018-05-08T02:23:04.502Z,6.35
2018-05-08T02:23:36.139Z,6.20
2018-05-08T02:24:07.767Z,6.07
2018-05-08T02:24:39.391Z,6.45
2018-05-08T02:25:11.030Z,6.03
2018-05-08T02:25:42.668Z,6.22
2018-05-08T02:26:14.294Z,6.30
2018-05-08T02:26:45.968Z,6.80
2018-05-08T02:27:17.604Z,6.20
2018-05-08T02:27:49.222Z,6.68
2018-05-08T02:28:20.832Z,6.62
2018-05-08T02:28:52.455Z,6.12
2018-05-08T02:29:24.067Z,7.28
2018-05-08T02:29:55.708Z,6.28
2018-05-08T02:30:27.372Z,6.35
2018-05-08T02:30:59.004Z,6.53
2018-05-08T02:31:30.648Z,6.30
2018-05-08T02:32:02.302Z,6.40
2018-05-08T02:32:33.924Z,6.87
2018-05-08T02:33:05.523Z,6.25
2018-05-08T02:33:37.144Z,5.97
2018-05-08T02:34:08.794Z,6.85
2018-05-08T02:34:40.411Z,6.30
2018-05-08T02:35:12.043Z,6.55
2018-05-08T02:35:43.673Z,6.65
2018-05-08T02:36:15.332Z,6.10
2018-05-08T02:36:46.974Z,6.50
2018-05-08T02:37:18.618Z,6.57
2018-05-08T02:37:50.256Z,6.68
2018-05-08T02:38:21.870Z,5.78
2018-05-08T02:38:53.496Z,6.35
2018-05-08T02:39:25.133Z,6.15
2018-05-08T02:39:56.751Z,6.90
2018-05-08T02:40:28.371Z,6.57
2018-05-08T02:41:14.946Z,6.45
2018-05-08T02:41:46.564Z,6.60
2018-05-08T02:42:18.219Z,6.18
2018-05-08T02:42:49.859Z,6.65
2018-05-08T02:43:21.491Z,6.62
2018-05-08T02:43:53.136Z,6.95
2018-05-08T02:44:24.777Z,6.12
2018-05-08T02:44:56.426Z,6.50
2018-05-08T02:45:28.052Z,6.22
2018-05-08T02:45:59.688Z,6.93
2018-05-08T02:46:31.316Z,6.82
2018-05-08T02:47:02.950Z,6.12
2018-05-08T02:47:34.597Z,6.72
2018-05-08T02:48:06.254Z,6.30
2018-05-08T02:48:37.890Z,6.07
2018-05-08T02:49:09.522Z,5.90
2018-05-08T02:49:41.168Z,6.30
2018-05-08T02:50:12.797Z,6.20
2018-05-08T02:50:44.443Z,6.32
2018-05-08T02:51:16.068Z,6.75
2018-05-08T02:51:47.696Z,6.40
2018-05-08T02:52:19.325Z,6.07
2018-05-08T02:52:50.984Z,6.47
2018-05-08T02:53:22.656Z,6.28
2018-05-08T02:53:54.292Z,6.70
2018-05-08T02:54:25.911Z,6.57
2018-05-08T02:54:57.547Z,6.40
2018-05-08T02:55:29.175Z,6.40
2018-05-08T02:56:00.804Z,6.72
2018-05-08T02:56:32.409Z,6.43
2018-05-08T02:57:04.052Z,6.70
2018-05-08T02:57:35.729Z,6.37
2018-05-08T02:58:07.377Z,6.10
2018-05-08T02:58:38.993Z,7.32
2018-05-08T02:59:10.608Z,6.20
2018-05-08T02:59:42.224Z,5.90
2018-05-08T03:00:13.868Z,6.55
2018-05-08T03:00:45.523Z,6.03
2018-05-08T03:01:17.187Z,6.50
2018-05-08T03:01:48.821Z,6.40
2018-05-08T03:02:20.460Z,7.00
2018-05-08T03:02:52.069Z,7.43
2018-05-08T03:03:23.704Z,6.75
2018-05-08T03:03:55.342Z,6.07
2018-05-08T03:04:26.956Z,6.55
2018-05-08T03:04:58.590Z,6.72
2018-05-08T03:05:30.237Z,6.65
2018-05-08T03:06:01.860Z,6.43
2018-05-08T03:06:33.486Z,6.95
2018-05-08T03:07:05.124Z,6.75
2018-05-08T03:07:36.745Z,6.90
2018-05-08T03:08:08.385Z,7.05
2018-05-08T03:08:40.059Z,6.80
2018-05-08T03:09:11.690Z,6.28
2018-05-08T03:09:43.311Z,6.87
2018-05-08T03:10:14.968Z,6.78
2018-05-08T03:10:46.607Z,6.72
2018-05-08T03:11:18.234Z,6.82
2018-05-08T03:11:49.868Z,6.43
2018-05-08T03:12:21.498Z,7.32
2018-05-08T03:12:53.131Z,7.50
2018-05-08T03:13:24.751Z,7.10
2018-05-08T03:13:56.391Z,6.75
2018-05-08T03:14:28.020Z,7.72
2018-05-08T03:14:59.660Z,7.00
2018-05-08T03:15:31.279Z,6.93
2018-05-08T03:16:02.900Z,6.78
2018-05-08T03:16:34.533Z,7.15
2018-05-08T03:17:06.155Z,6.85
2018-05-08T03:17:37.767Z,6.68
2018-05-08T03:18:09.384Z,7.18
2018-05-08T03:18:41.005Z,6.82
2018-05-08T03:19:12.633Z,7.00
2018-05-08T03:19:44.267Z,6.97
2018-05-08T03:20:15.885Z,6.68
2018-05-08T03:20:47.510Z,6.87
2018-05-08T03:21:19.187Z,6.82
2018-05-08T03:21:50.813Z,7.03
2018-05-08T03:22:22.448Z,6.87
2018-05-08T03:22:54.069Z,7.20
2018-05-08T03:23:25.731Z,6.70
2018-05-08T03:23:57.365Z,6.80
2018-05-08T03:24:28.988Z,7.28
2018-05-08T03:25:00.628Z,7.30
2018-05-08T03:25:32.256Z,7.00
2018-05-08T03:26:03.917Z,6.85
2018-05-08T03:26:35.537Z,6.87
2018-05-08T03:27:07.187Z,7.55
2018-05-08T03:27:38.842Z,7.53
2018-05-08T03:28:10.457Z,7.47
2018-05-08T03:28:42.087Z,7.35
2018-05-08T03:29:13.711Z,6.90
2018-05-08T03:29:45.345Z,7.32
2018-05-08T03:30:16.962Z,7.40
2018-05-08T03:30:48.585Z,7.05
2018-05-08T03:31:20.229Z,7.68
2018-05-08T03:31:51.855Z,7.18
2018-05-08T03:32:23.467Z,7.05
2018-05-08T03:32:55.110Z,7.30
2018-05-08T03:33:26.755Z,7.53
2018-05-08T03:33:58.385Z,7.47
2018-05-08T03:34:30.003Z,6.90
2018-05-08T03:35:01.653Z,7.32
2018-05-08T03:35:33.274Z,7.12
2018-05-08T03:36:04.888Z,7.90
2018-05-08T03:36:36.535Z,7.50
2018-05-08T03:37:08.167Z,8.15
2018-05-08T03:37:39.824Z,7.22
2018-05-08T03:38:11.454Z,7.07
2018-05-08T03:38:43.085Z,7.22
2018-05-08T03:39:14.730Z,7.37
2018-05-08T03:39:46.353Z,7.20
2018-05-08T03:40:18.339Z,7.22
2018-05-08T03:40:49.979Z,7.72
2018-05-08T03:41:21.615Z,7.72
2018-05-08T03:41:53.255Z,7.00
2018-05-08T03:42:24.880Z,7.70
2018-05-08T03:42:56.491Z,7.60
2018-05-08T03:43:28.121Z,7.30
2018-05-08T03:43:59.765Z,7.25
2018-05-08T03:44:31.388Z,7.90
2018-05-08T03:45:03.060Z,8.00
2018-05-08T03:45:34.676Z,7.20
2018-05-08T03:46:06.322Z,7.50
2018-05-08T03:46:37.951Z,7.15
2018-05-08T03:47:09.631Z,7.35
2018-05-08T03:47:41.255Z,7.03
2018-05-08T03:48:12.883Z,7.45
2018-05-08T03:48:44.515Z,7.93
2018-05-08T03:49:16.145Z,6.85
2018-05-08T03:49:47.771Z,7.37
2018-05-08T03:50:19.413Z,6.85
2018-05-08T03:50:51.051Z,6.97
2018-05-08T03:51:22.663Z,7.15
2018-05-08T03:51:54.299Z,6.72
2018-05-08T03:52:25.920Z,7.45
2018-05-08T03:52:57.556Z,7.37
2018-05-08T03:53:29.195Z,7.25
2018-05-08T03:54:00.817Z,7.80
2018-05-08T03:54:32.423Z,7.32
2018-05-08T03:55:04.095Z,7.50
2018-05-08T03:55:35.718Z,7.70
2018-05-08T03:56:07.335Z,7.75
2018-05-08T03:56:38.971Z,7.75
2018-05-08T03:57:10.609Z,7.32
2018-05-08T03:57:42.233Z,7.37
2018-05-08T03:58:13.847Z,7.35
2018-05-08T03:58:45.471Z,6.72
2018-05-08T03:59:17.095Z,7.20
2018-05-08T03:59:48.725Z,7.45
2018-05-08T04:00:38.854Z,7.80
2018-05-08T04:01:41.683Z,7.85
2018-05-08T04:02:31.694Z,6.78
2018-05-08T04:03:33.688Z,7.30
2018-05-08T04:04:23.728Z,6.90
2018-05-08T04:05:13.936Z,7.12
2018-05-08T04:06:28.580Z,7.65
2018-05-08T04:07:18.783Z,6.95
2018-05-08T04:08:09.111Z,7.30
2018-05-08T04:08:40.735Z,6.50
2018-05-08T04:09:12.365Z,6.93
2018-05-08T04:09:44.013Z,7.53
2018-05-08T04:10:15.635Z,6.93
2018-05-08T04:10:47.327Z,7.15
2018-05-08T04:11:18.945Z,7.40
2018-05-08T04:11:50.583Z,6.60
2018-05-08T04:12:22.245Z,6.37
2018-05-08T04:12:53.889Z,6.45
2018-05-08T04:13:25.527Z,6.50
2018-05-08T04:13:57.181Z,6.93
2018-05-08T04:14:28.802Z,6.78
2018-05-08T04:15:00.455Z,6.57
2018-05-08T04:15:32.097Z,6.78
2018-05-08T04:16:03.756Z,7.20
2018-05-08T04:16:35.404Z,6.75
2018-05-08T04:17:07.020Z,6.78
2018-05-08T04:17:38.669Z,6.97
2018-05-08T04:18:10.305Z,6.65
2018-05-08T04:18:41.924Z,6.53
2018-05-08T04:19:13.563Z,7.47
2018-05-08T04:19:45.183Z,6.85
2018-05-08T04:20:16.801Z,6.75
2018-05-08T04:20:48.425Z,7.18
2018-05-08T04:21:20.070Z,6.78
2018-05-08T04:21:51.705Z,6.45
2018-05-08T04:22:23.316Z,6.62
2018-05-08T04:22:54.941Z,6.55
2018-05-08T04:23:26.590Z,7.30
2018-05-08T04:23:58.219Z,6.68
2018-05-08T04:24:29.840Z,6.30
2018-05-08T04:25:01.467Z,7.03
2018-05-08T04:25:33.103Z,6.85
2018-05-08T04:26:04.721Z,6.97
2018-05-08T04:26:36.357Z,6.28
2018-05-08T04:27:07.996Z,7.10
2018-05-08T04:27:39.634Z,6.37
2018-05-08T04:28:11.267Z,6.75
2018-05-08T04:28:42.921Z,6.28
2018-05-08T04:29:14.580Z,7.20
2018-05-08T04:29:46.194Z,6.28
2018-05-08T04:30:17.811Z,7.03
2018-05-08T04:30:49.426Z,6.57
2018-05-08T04:31:21.053Z,6.87
2018-05-08T04:31:52.683Z,6.82
2018-05-08T04:32:24.294Z,6.60
2018-05-08T04:32:55.941Z,7.03
2018-05-08T04:33:27.569Z,6.68
2018-05-08T04:33:59.192Z,6.53
2018-05-08T04:34:30.805Z,6.60
2018-05-08T04:35:02.449Z,6.87
2018-05-08T04:35:34.100Z,6.93
2018-05-08T04:36:05.737Z,6.65
2018-05-08T04:36:37.389Z,6.90
2018-05-08T04:37:09.019Z,6.82
2018-05-08T04:37:40.664Z,6.85
2018-05-08T04:38:12.310Z,6.53
2018-05-08T04:38:43.943Z,6.53
2018-05-08T04:39:15.570Z,6.18
2018-05-08T04:39:47.199Z,6.95
2018-05-08T04:40:18.813Z,6.35
2018-05-08T04:40:50.441Z,6.50
2018-05-08T04:41:22.055Z,6.25
2018-05-08T04:41:53.685Z,6.35
2018-05-08T04:42:25.332Z,6.78
2018-05-08T04:42:56.949Z,6.50
2018-05-08T04:43:28.582Z,6.70
2018-05-08T04:44:00.199Z,6.45
2018-05-08T04:44:31.815Z,7.00
2018-05-08T04:45:03.436Z,6.57
2018-05-08T04:45:35.359Z,6.12
2018-05-08T04:46:06.991Z,6.72
2018-05-08T04:46:38.605Z,6.50
2018-05-08T04:47:10.225Z,6.18
2018-05-08T04:47:41.861Z,6.53
2018-05-08T04:48:13.485Z,6.45
2018-05-08T04:48:45.103Z,6.53
2018-05-08T04:49:16.720Z,6.03
2018-05-08T04:49:48.355Z,6.37
2018-05-08T04:50:19.970Z,6.85
2018-05-08T04:50:51.597Z,6.57
2018-05-08T04:51:23.209Z,6.87
2018-05-08T04:51:54.859Z,6.22
2018-05-08T04:52:26.487Z,6.20
2018-05-08T04:52:58.099Z,6.75
2018-05-08T04:53:29.716Z,6.70
2018-05-08T04:54:01.359Z,6.35
2018-05-08T04:54:32.995Z,6.85
2018-05-08T04:55:04.615Z,6.70
2018-05-08T04:55:36.236Z,6.37
2018-05-08T04:56:07.859Z,6.18
2018-05-08T04:56:39.513Z,6.37
2018-05-08T04:57:11.143Z,6.45
2018-05-08T04:57:42.757Z,6.15
2018-05-08T04:58:14.403Z,6.28
2018-05-08T04:58:46.015Z,6.62
2018-05-08T04:59:17.645Z,6.15
2018-05-08T04:59:49.288Z,6.35
2018-05-08T05:00:20.937Z,6.07
2018-05-08T05:00:52.585Z,6.47
2018-05-08T05:01:24.245Z,6.32
2018-05-08T05:01:55.859Z,6.47
2018-05-08T05:02:27.487Z,6.43
2018-05-08T05:02:59.131Z,5.93
2018-05-08T05:03:30.761Z,6.32
2018-05-08T05:04:02.433Z,6.60
2018-05-08T05:04:34.051Z,5.93
2018-05-08T05:05:05.697Z,5.80
2018-05-08T05:05:37.300Z,6.05
2018-05-08T05:06:08.915Z,6.22
2018-05-08T05:06:40.553Z,6.15
2018-05-08T05:07:12.189Z,6.50
2018-05-08T05:07:43.823Z,5.95
2018-05-08T05:08:15.447Z,6.25
2018-05-08T05:08:47.057Z,6.85
2018-05-08T05:09:18.701Z,5.93
2018-05-08T05:09:50.352Z,5.80
2018-05-08T05:10:21.997Z,6.47
2018-05-08T05:10:53.605Z,6.70
2018-05-08T05:11:25.227Z,6.22
2018-05-08T05:11:56.855Z,6.28
2018-05-08T05:13:15.089Z,6.15
2018-05-08T05:13:46.749Z,6.10
2018-05-08T05:14:18.404Z,5.97
2018-05-08T05:14:50.222Z,5.95
2018-05-08T05:15:21.858Z,6.78
2018-05-08T05:15:53.521Z,6.20
2018-05-08T05:16:25.156Z,6.57
2018-05-08T05:16:56.785Z,6.07
2018-05-08T05:17:28.429Z,6.43
2018-05-08T05:18:00.082Z,6.32
2018-05-08T05:18:31.711Z,6.25
2018-05-08T05:19:03.351Z,6.50
2018-05-08T05:19:34.995Z,6.32
2018-05-08T05:20:06.607Z,6.20
2018-05-08T05:20:38.255Z,6.50
2018-05-08T05:21:09.912Z,6.12
2018-05-08T05:21:41.571Z,6.22
2018-05-08T05:22:13.186Z,5.55
2018-05-08T05:22:44.815Z,6.60
2018-05-08T05:23:16.435Z,5.85
2018-05-08T05:23:48.071Z,5.62
2018-05-08T05:24:19.716Z,6.32
2018-05-08T05:24:51.333Z,6.28
2018-05-08T05:25:22.992Z,6.12
2018-05-08T05:25:54.623Z,5.75
2018-05-08T05:26:26.247Z,5.93
2018-05-08T05:26:57.879Z,5.60
2018-05-08T05:27:29.488Z,5.85
2018-05-08T05:28:01.111Z,5.85
2018-05-08T05:28:32.744Z,5.68
2018-05-08T05:29:04.377Z,5.80
2018-05-08T05:29:36.007Z,5.45
2018-05-08T05:30:07.635Z,5.78
2018-05-08T05:30:39.293Z,5.97
2018-05-08T05:31:10.911Z,5.95
2018-05-08T05:31:42.667Z,5.75
2018-05-08T05:32:14.215Z,6.30
2018-05-08T05:32:45.840Z,5.68
2018-05-08T05:33:17.455Z,5.85
2018-05-08T05:33:49.086Z,5.62
2018-05-08T05:34:20.709Z,6.10
2018-05-08T05:34:52.335Z,6.03
2018-05-08T05:35:23.970Z,6.22
2018-05-08T05:35:55.623Z,6.10
2018-05-08T05:36:27.227Z,6.00
2018-05-08T05:36:58.850Z,6.30
2018-05-08T05:37:30.486Z,6.28
2018-05-08T05:38:02.100Z,6.20
2018-05-08T05:38:33.726Z,6.40
2018-05-08T05:39:05.372Z,6.27
2018-05-08T05:39:37.001Z,5.65
2018-05-08T05:40:08.632Z,6.55
2018-05-08T05:40:40.236Z,5.85
2018-05-08T05:41:11.910Z,5.87
2018-05-08T05:41:43.516Z,5.85
2018-05-08T05:42:15.148Z,5.87
2018-05-08T05:42:46.799Z,6.57
2018-05-08T05:43:18.412Z,5.90
2018-05-08T05:43:50.042Z,5.90
2018-05-08T05:44:21.664Z,5.95
2018-05-08T05:44:53.286Z,5.95
2018-05-08T05:45:24.948Z,6.47
2018-05-08T05:45:56.580Z,5.65
2018-05-08T05:46:28.232Z,5.93
2018-05-08T05:46:59.866Z,5.90
2018-05-08T05:47:31.490Z,5.93
2018-05-08T05:48:03.126Z,6.03
2018-05-08T05:48:34.738Z,6.03
2018-05-08T05:49:06.368Z,6.90
2018-05-08T05:49:38.014Z,5.50
2018-05-08T05:50:09.646Z,6.30
2018-05-08T05:50:41.266Z,5.70
2018-05-08T05:51:12.904Z,5.70
2018-05-08T05:51:44.560Z,5.93
2018-05-08T05:52:16.190Z,5.80
2018-05-08T05:52:47.799Z,6.00
2018-05-08T05:53:19.439Z,5.50
2018-05-08T05:53:51.078Z,5.62
2018-05-08T05:54:22.698Z,5.68
2018-05-08T05:54:54.318Z,6.12
2018-05-08T05:55:25.976Z,5.60
2018-05-08T05:55:57.582Z,6.00
2018-05-08T05:56:29.220Z,6.53
2018-05-08T05:57:00.860Z,6.25
2018-05-08T05:57:32.475Z,5.50
2018-05-08T05:58:04.118Z,5.50
2018-05-08T05:58:35.748Z,5.65
2018-05-08T05:59:07.368Z,6.03
2018-05-08T05:59:38.994Z,5.72
2018-05-08T06:00:10.683Z,5.80
2018-05-08T06:00:42.236Z,5.60
2018-05-08T06:01:13.880Z,5.82
2018-05-08T06:01:45.500Z,6.07
2018-05-08T06:02:17.118Z,6.10
2018-05-08T06:02:48.750Z,5.47
2018-05-08T06:03:20.382Z,5.65
2018-05-08T06:03:52.016Z,5.70
2018-05-08T06:04:23.640Z,5.97
2018-05-08T06:04:55.259Z,5.75
2018-05-08T06:05:26.913Z,5.85
2018-05-08T06:05:58.549Z,5.70
2018-05-08T06:06:30.255Z,5.80
2018-05-08T06:07:01.825Z,6.57
2018-05-08T06:07:33.480Z,6.03
2018-05-08T06:08:05.099Z,6.43
2018-05-08T06:08:36.740Z,6.45
2018-05-08T06:09:08.371Z,5.82
2018-05-08T06:09:40.002Z,6.18
2018-05-08T06:10:11.628Z,6.03
2018-05-08T06:10:43.248Z,6.00
2018-05-08T06:11:14.885Z,6.25
2018-05-08T06:11:46.501Z,6.07
2018-05-08T06:12:18.121Z,6.00
2018-05-08T06:12:49.752Z,5.80
2018-05-08T06:13:21.377Z,6.55
2018-05-08T06:13:53.010Z,5.87
2018-05-08T06:14:24.633Z,5.72
2018-05-08T06:14:56.257Z,6.20
2018-05-08T06:15:27.892Z,5.72
2018-05-08T06:15:59.571Z,5.60
2018-05-08T06:16:31.192Z,6.75
2018-05-08T06:17:02.808Z,6.12
2018-05-08T06:17:34.445Z,5.87
2018-05-08T06:18:06.093Z,5.95
2018-05-08T06:18:37.722Z,5.53
2018-05-08T06:19:09.360Z,5.75
2018-05-08T06:19:40.984Z,5.78
2018-05-08T06:20:12.604Z,6.10
2018-05-08T06:20:44.255Z,6.28
2018-05-08T06:21:15.879Z,6.12
2018-05-08T06:21:47.499Z,6.37
2018-05-08T06:22:19.143Z,6.47
2018-05-08T06:22:50.855Z,5.87
2018-05-08T06:23:22.442Z,6.37
2018-05-08T06:23:54.079Z,5.93
2018-05-08T06:24:25.713Z,6.05
2018-05-08T06:24:57.335Z,5.70
2018-05-08T06:25:28.979Z,6.30
2018-05-08T06:26:00.605Z,5.82
2018-05-08T06:26:32.241Z,5.40
2018-05-08T06:27:03.836Z,5.82
2018-05-08T06:27:35.459Z,5.57
2018-05-08T06:28:07.057Z,5.95
2018-05-08T06:28:38.696Z,6.03
2018-05-08T06:29:10.333Z,6.03
2018-05-08T06:29:42.042Z,5.75
2018-05-08T06:30:13.691Z,5.80
2018-05-08T06:30:45.307Z,6.25
2018-05-08T06:31:16.938Z,6.00
2018-05-08T06:31:48.563Z,6.20
2018-05-08T06:32:20.170Z,5.97
2018-05-08T06:32:51.816Z,6.00
2018-05-08T06:33:23.437Z,5.55
2018-05-08T06:33:55.067Z,6.12
2018-05-08T06:34:26.713Z,6.15
2018-05-08T06:34:58.359Z,5.85
2018-05-08T06:35:30.003Z,5.68
2018-05-08T06:36:01.667Z,6.12
2018-05-08T06:36:33.322Z,5.53
2018-05-08T06:37:05.036Z,6.28
2018-05-08T06:38:31.365Z,5.65
2018-05-08T06:39:03.083Z,6.12
2018-05-08T06:39:34.794Z,5.57
2018-05-08T06:40:06.409Z,6.00
2018-05-08T06:40:38.027Z,6.70
2018-05-08T06:41:09.660Z,5.68
2018-05-08T06:41:41.279Z,6.10
2018-05-08T06:42:12.921Z,6.22
2018-05-08T06:42:44.556Z,6.20
2018-05-08T06:43:16.187Z,6.20
2018-05-08T06:43:47.840Z,5.85
2018-05-08T06:44:19.550Z,6.57
2018-05-08T06:44:51.115Z,5.47
2018-05-08T06:45:22.774Z,5.72
2018-05-08T06:45:54.435Z,6.20
2018-05-08T06:46:26.065Z,6.45
2018-05-08T06:46:57.686Z,6.55
2018-05-08T06:47:29.338Z,5.95
2018-05-08T06:48:00.980Z,6.80
2018-05-08T06:48:32.611Z,5.97
2018-05-08T06:49:04.257Z,5.93
2018-05-08T06:49:35.873Z,5.97
2018-05-08T06:50:07.488Z,5.78
2018-05-08T06:50:39.136Z,6.65
2018-05-08T06:51:10.770Z,6.10
2018-05-08T06:51:42.386Z,6.90
2018-05-08T06:52:14.032Z,5.68
2018-05-08T06:52:45.669Z,5.60
2018-05-08T06:53:17.294Z,5.93
2018-05-08T06:53:48.916Z,6.00
2018-05-08T06:54:20.570Z,6.05
2018-05-08T06:54:52.232Z,6.03
2018-05-08T06:55:23.802Z,6.85
2018-05-08T06:55:55.502Z,6.15
2018-05-08T06:56:27.062Z,6.32
2018-05-08T06:56:58.688Z,6.28
2018-05-08T06:57:30.328Z,6.37
2018-05-08T06:58:01.964Z,6.75
2018-05-08T06:58:33.578Z,5.90
2018-05-08T06:59:05.211Z,6.25
2018-05-08T06:59:36.823Z,6.30
2018-05-08T07:00:08.446Z,6.45
2018-05-08T07:00:40.094Z,6.15
2018-05-08T07:01:11.716Z,6.10
2018-05-08T07:01:43.331Z,6.15
2018-05-08T07:02:14.955Z,5.97
2018-05-08T07:02:46.579Z,6.25
2018-05-08T07:03:18.212Z,6.10
2018-05-08T07:03:49.861Z,5.45
2018-05-08T07:04:21.510Z,6.80
2018-05-08T07:04:53.139Z,6.12
2018-05-08T07:05:24.767Z,5.72
2018-05-08T07:05:56.412Z,6.60
2018-05-08T07:06:28.062Z,6.85
2018-05-08T07:06:59.680Z,7.20